ADDS TAF Board (Experimental) INFO

IDs: Format: Expanded Condensed

Updated at: 0650 UTC 28 Nov 2014

KLAX - Los Angeles Intl, CA, US

Issued at 0520 UTC 28 Nov 2014
Time0553Z28/07Z28/08Z28/09Z28/10Z28/11Z28/12Z28/13Z28/14Z28/15Z28/16Z28/17Z28/18Z28/19Z
TypeOBSPRVLPRVLPRVLPRVLPRVLPRVLPRVLPRVLPRVLPRVLPRVLPRVLPRVL
VIS10>6>6>6>6>6>6>6>6>6>6>6>6>6
CIG----------------------------
CoverCLRSKCSKCSKCSKCSKCSKCSKCSKCSKCSKCSKCSKCSKC
FltCat--VFRVFRVFRVFRVFRVFRVFRVFRVFRVFRVFRVFRVFR
WX----------------------------
WDir80VRBVRBVRBVRBVRBVRBVRBVRBVRBVRBVRBVRBVRB
WSpd43333333333333
WGst----------------------------
R06/24
XWnd0VRBVRBVRBVRBVRBVRBVRBVRBVRBVRBVRBVRBVRB
HWnd4VRBVRBVRBVRBVRBVRBVRBVRBVRBVRBVRBVRBVRB
R07/25
XWnd0VRBVRBVRBVRBVRBVRBVRBVRBVRBVRBVRBVRBVRB
HWnd4VRBVRBVRBVRBVRBVRBVRBVRBVRBVRBVRBVRBVRB
Raw TAF
KLAX 280520Z 2806/2912 VRB03KT P6SM SKC
  FM282000 25007KT P6SM SKC
  FM290300 VRB03KT P6SM SKC
  FM291000 VRB03KT 4SM BR SCT010


Raw METAR
KLAX 280553Z 08004KT 10SM CLR 16/11 A3002 RMK AO2 SLP161 T01610111 10222 20156 50001 $

TAF Board Legend

Hazard VFR MVFR IFR LIFR
Visibility (sm) >5 3≤X≤5 1≤X<3 <1
Ceiling (100 ft) >30 10≤X≤30 5≤X<10 <5
Wind Speed (kt) <10 10≤X<20 20≤X<30 ≥30
Wind Gust (kt) <15 15≤X<25 25≤X<35 ≥35
Weather No Wx Reported VCTS,-TS,-FZRA TS,FZRA +TS,+FZRA


Page loaded:  06:50 UTC  |   10:50 PM Pacific  |   11:50 PM Mountain  |   12:50 AM Central  |   01:50 AM Eastern

 

ADVISORIES

FORECASTS

FORECASTS

OBSERVATIONS

USER TOOLS

ABOUT US